sensor_id;sensor_type;location;lat;lon;timestamp;temperature;humidity
20446;DHT22;10382;49.140;9.234;2023-11-22T00:01:02;8.00;99.90
20446;DHT22;10382;49.140;9.234;2023-11-22T00:03:29;8.00;99.90
20446;DHT22;10382;49.140;9.234;2023-11-22T00:05:58;8.00;99.90
20446;DHT22;10382;49.140;9.234;2023-11-22T00:08:24;8.10;99.90
20446;DHT22;10382;49.140;9.234;2023-11-22T00:10:51;8.10;99.90
20446;DHT22;10382;49.140;9.234;2023-11-22T00:13:18;8.20;99.90
20446;DHT22;10382;49.140;9.234;2023-11-22T00:15:45;8.10;99.90
20446;DHT22;10382;49.140;9.234;2023-11-22T00:18:12;8.10;99.90
20446;DHT22;10382;49.140;9.234;2023-11-22T00:20:39;8.20;99.90
20446;DHT22;10382;49.140;9.234;2023-11-22T00:23:07;8.20;99.90
20446;DHT22;10382;49.140;9.234;2023-11-22T00:25:35;8.30;99.90
20446;DHT22;10382;49.140;9.234;2023-11-22T00:28:02;8.30;99.90
20446;DHT22;10382;49.140;9.234;2023-11-22T00:30:31;8.40;99.90
20446;DHT22;10382;49.140;9.234;2023-11-22T00:32:58;8.40;99.90
20446;DHT22;10382;49.140;9.234;2023-11-22T00:35:25;8.40;99.90
20446;DHT22;10382;49.140;9.234;2023-11-22T00:37:52;8.30;99.90
20446;DHT22;10382;49.140;9.234;2023-11-22T00:40:20;8.20;99.90
20446;DHT22;10382;49.140;9.234;2023-11-22T00:42:47;8.00;99.90
20446;DHT22;10382;49.140;9.234;2023-11-22T00:45:14;7.60;99.90
20446;DHT22;10382;49.140;9.234;2023-11-22T00:47:41;7.50;99.90
20446;DHT22;10382;49.140;9.234;2023-11-22T00:50:08;7.50;99.90
20446;DHT22;10382;49.140;9.234;2023-11-22T00:52:35;7.40;99.90
20446;DHT22;10382;49.140;9.234;2023-11-22T00:55:03;7.50;99.90
20446;DHT22;10382;49.140;9.234;2023-11-22T00:57:32;7.40;99.90
20446;DHT22;10382;49.140;9.234;2023-11-22T00:59:59;7.30;99.90
20446;DHT22;10382;49.140;9.234;2023-11-22T01:02:25;7.20;99.90
20446;DHT22;10382;49.140;9.234;2023-11-22T01:04:52;7.10;99.90
20446;DHT22;10382;49.140;9.234;2023-11-22T01:07:19;7.00;99.90
20446;DHT22;10382;49.140;9.234;2023-11-22T01:09:46;7.00;99.90
20446;DHT22;10382;49.140;9.234;2023-11-22T01:12:13;7.00;99.90
20446;DHT22;10382;49.140;9.234;2023-11-22T01:14:41;7.10;99.90
20446;DHT22;10382;49.140;9.234;2023-11-22T01:17:08;7.10;99.90
20446;DHT22;10382;49.140;9.234;2023-11-22T01:19:35;7.10;99.90
20446;DHT22;10382;49.140;9.234;2023-11-22T01:22:03;7.20;99.90
20446;DHT22;10382;49.140;9.234;2023-11-22T01:24:30;7.30;99.90
20446;DHT22;10382;49.140;9.234;2023-11-22T01:26:56;7.40;99.90
20446;DHT22;10382;49.140;9.234;2023-11-22T01:29:23;7.40;99.90
20446;DHT22;10382;49.140;9.234;2023-11-22T01:31:51;7.50;99.90
20446;DHT22;10382;49.140;9.234;2023-11-22T01:34:18;7.60;99.90
20446;DHT22;10382;49.140;9.234;2023-11-22T01:36:45;7.70;99.90
20446;DHT22;10382;49.140;9.234;2023-11-22T01:39:12;7.80;99.90
20446;DHT22;10382;49.140;9.234;2023-11-22T01:41:40;7.90;99.90
20446;DHT22;10382;49.140;9.234;2023-11-22T01:44:07;7.90;99.90
20446;DHT22;10382;49.140;9.234;2023-11-22T01:46:34;7.90;99.90
20446;DHT22;10382;49.140;9.234;2023-11-22T01:49:03;7.90;99.90
20446;DHT22;10382;49.140;9.234;2023-11-22T01:51:30;7.90;99.90
20446;DHT22;10382;49.140;9.234;2023-11-22T01:53:58;7.90;99.90
20446;DHT22;10382;49.140;9.234;2023-11-22T01:56:26;8.00;99.90
20446;DHT22;10382;49.140;9.234;2023-11-22T01:58:55;7.80;99.90
20446;DHT22;10382;49.140;9.234;2023-11-22T02:01:22;7.80;99.90
20446;DHT22;10382;49.140;9.234;2023-11-22T02:03:49;7.80;99.90
20446;DHT22;10382;49.140;9.234;2023-11-22T02:06:19;7.70;99.90
20446;DHT22;10382;49.140;9.234;2023-11-22T02:08:47;7.70;99.90
20446;DHT22;10382;49.140;9.234;2023-11-22T02:11:17;7.70;99.90
20446;DHT22;10382;49.140;9.234;2023-11-22T02:13:47;7.70;99.90
20446;DHT22;10382;49.140;9.234;2023-11-22T02:16:14;7.70;99.90
20446;DHT22;10382;49.140;9.234;2023-11-22T02:18:41;7.60;99.90
20446;DHT22;10382;49.140;9.234;2023-11-22T02:21:09;7.60;99.90
20446;DHT22;10382;49.140;9.234;2023-11-22T02:23:37;7.60;99.90
20446;DHT22;10382;49.140;9.234;2023-11-22T02:26:04;7.60;99.90
20446;DHT22;10382;49.140;9.234;2023-11-22T02:28:31;7.60;99.90
20446;DHT22;10382;49.140;9.234;2023-11-22T02:30:58;7.70;99.90
20446;DHT22;10382;49.140;9.234;2023-11-22T02:33:25;7.80;99.90
20446;DHT22;10382;49.140;9.234;2023-11-22T02:35:51;7.80;99.90
20446;DHT22;10382;49.140;9.234;2023-11-22T02:38:18;7.60;99.90
20446;DHT22;10382;49.140;9.234;2023-11-22T02:40:45;7.50;99.90
20446;DHT22;10382;49.140;9.234;2023-11-22T02:43:12;7.50;99.90
20446;DHT22;10382;49.140;9.234;2023-11-22T02:45:39;7.50;99.90
20446;DHT22;10382;49.140;9.234;2023-11-22T02:48:06;7.50;99.90
20446;DHT22;10382;49.140;9.234;2023-11-22T02:50:35;7.40;99.90
20446;DHT22;10382;49.140;9.234;2023-11-22T02:53:02;7.40;99.90
20446;DHT22;10382;49.140;9.234;2023-11-22T02:55:30;7.40;99.90
20446;DHT22;10382;49.140;9.234;2023-11-22T02:57:58;7.30;99.90
20446;DHT22;10382;49.140;9.234;2023-11-22T03:00:25;7.20;99.90
20446;DHT22;10382;49.140;9.234;2023-11-22T03:02:53;7.20;99.90
20446;DHT22;10382;49.140;9.234;2023-11-22T03:05:21;7.10;99.90
20446;DHT22;10382;49.140;9.234;2023-11-22T03:07:48;7.10;99.90
20446;DHT22;10382;49.140;9.234;2023-11-22T03:10:16;7.10;99.90
20446;DHT22;10382;49.140;9.234;2023-11-22T03:12:44;7.10;99.90
20446;DHT22;10382;49.140;9.234;2023-11-22T03:15:13;7.00;99.90
20446;DHT22;10382;49.140;9.234;2023-11-22T03:17:40;7.10;99.90
20446;DHT22;10382;49.140;9.234;2023-11-22T03:20:07;7.10;99.90
20446;DHT22;10382;49.140;9.234;2023-11-22T03:22:37;7.20;99.90
20446;DHT22;10382;49.140;9.234;2023-11-22T03:25:04;7.30;99.90
20446;DHT22;10382;49.140;9.234;2023-11-22T03:27:32;7.30;99.90
20446;DHT22;10382;49.140;9.234;2023-11-22T03:30:00;7.40;99.90
20446;DHT22;10382;49.140;9.234;2023-11-22T03:32:28;7.30;99.90
20446;DHT22;10382;49.140;9.234;2023-11-22T03:34:55;7.30;99.90
20446;DHT22;10382;49.140;9.234;2023-11-22T03:37:22;7.30;99.90
20446;DHT22;10382;49.140;9.234;2023-11-22T03:39:49;7.30;99.90
20446;DHT22;10382;49.140;9.234;2023-11-22T03:42:16;7.20;99.90
20446;DHT22;10382;49.140;9.234;2023-11-22T03:44:43;7.30;99.90
20446;DHT22;10382;49.140;9.234;2023-11-22T03:47:11;7.30;99.90
20446;DHT22;10382;49.140;9.234;2023-11-22T03:49:40;7.30;99.90
20446;DHT22;10382;49.140;9.234;2023-11-22T03:52:09;7.40;99.90
20446;DHT22;10382;49.140;9.234;2023-11-22T03:54:37;7.40;99.90
20446;DHT22;10382;49.140;9.234;2023-11-22T03:57:05;7.40;99.90
20446;DHT22;10382;49.140;9.234;2023-11-22T03:59:33;7.40;99.90
20446;DHT22;10382;49.140;9.234;2023-11-22T04:02:00;7.30;99.90
20446;DHT22;10382;49.140;9.234;2023-11-22T04:04:27;7.30;99.90
20446;DHT22;10382;49.140;9.234;2023-11-22T04:06:55;7.30;99.90
20446;DHT22;10382;49.140;9.234;2023-11-22T04:09:22;7.40;99.90
20446;DHT22;10382;49.140;9.234;2023-11-22T04:11:49;7.40;99.90
20446;DHT22;10382;49.140;9.234;2023-11-22T04:14:16;7.50;99.90
20446;DHT22;10382;49.140;9.234;2023-11-22T04:16:45;7.50;99.90
20446;DHT22;10382;49.140;9.234;2023-11-22T04:19:12;7.50;99.90
20446;DHT22;10382;49.140;9.234;2023-11-22T04:21:39;7.50;99.90
20446;DHT22;10382;49.140;9.234;2023-11-22T04:24:08;7.50;99.90
20446;DHT22;10382;49.140;9.234;2023-11-22T04:26:35;7.50;99.90
20446;DHT22;10382;49.140;9.234;2023-11-22T04:29:02;7.40;99.90
20446;DHT22;10382;49.140;9.234;2023-11-22T04:31:29;7.40;99.90
20446;DHT22;10382;49.140;9.234;2023-11-22T04:33:56;7.30;99.90
20446;DHT22;10382;49.140;9.234;2023-11-22T04:36:25;7.30;99.90
20446;DHT22;10382;49.140;9.234;2023-11-22T04:38:52;7.30;99.90
20446;DHT22;10382;49.140;9.234;2023-11-22T04:41:20;7.30;99.90
20446;DHT22;10382;49.140;9.234;2023-11-22T04:43:48;7.20;99.90
20446;DHT22;10382;49.140;9.234;2023-11-22T04:46:15;7.30;99.90
20446;DHT22;10382;49.140;9.234;2023-11-22T04:48:42;7.20;99.90
20446;DHT22;10382;49.140;9.234;2023-11-22T04:51:10;7.20;1.00
20446;DHT22;10382;49.140;9.234;2023-11-22T04:53:37;7.20;1.00
20446;DHT22;10382;49.140;9.234;2023-11-22T04:56:04;7.20;1.00
20446;DHT22;10382;49.140;9.234;2023-11-22T04:58:33;7.20;1.00
20446;DHT22;10382;49.140;9.234;2023-11-22T05:01:01;7.20;1.00
20446;DHT22;10382;49.140;9.234;2023-11-22T05:03:29;7.20;1.00
20446;DHT22;10382;49.140;9.234;2023-11-22T05:05:56;7.20;1.00
20446;DHT22;10382;49.140;9.234;2023-11-22T05:08:22;7.20;1.00
20446;DHT22;10382;49.140;9.234;2023-11-22T05:10:50;7.20;1.00
20446;DHT22;10382;49.140;9.234;2023-11-22T05:13:17;7.20;1.00
20446;DHT22;10382;49.140;9.234;2023-11-22T05:15:45;7.30;1.00
20446;DHT22;10382;49.140;9.234;2023-11-22T05:18:12;7.20;1.00
20446;DHT22;10382;49.140;9.234;2023-11-22T05:20:39;7.30;1.00
20446;DHT22;10382;49.140;9.234;2023-11-22T05:23:06;7.30;1.00
20446;DHT22;10382;49.140;9.234;2023-11-22T05:25:33;7.30;1.00
20446;DHT22;10382;49.140;9.234;2023-11-22T05:28:00;7.20;99.90
20446;DHT22;10382;49.140;9.234;2023-11-22T05:30:26;7.10;99.90
20446;DHT22;10382;49.140;9.234;2023-11-22T05:32:55;6.90;99.90
20446;DHT22;10382;49.140;9.234;2023-11-22T05:35:22;6.70;99.90
20446;DHT22;10382;49.140;9.234;2023-11-22T05:37:48;6.70;99.90
20446;DHT22;10382;49.140;9.234;2023-11-22T05:40:15;6.70;99.90
20446;DHT22;10382;49.140;9.234;2023-11-22T05:42:43;6.60;95.50
20446;DHT22;10382;49.140;9.234;2023-11-22T05:45:10;6.60;95.50
20446;DHT22;10382;49.140;9.234;2023-11-22T05:47:37;6.50;3.40
20446;DHT22;10382;49.140;9.234;2023-11-22T05:50:07;6.30;1.00
20446;DHT22;10382;49.140;9.234;2023-11-22T05:52:34;6.20;1.00
20446;DHT22;10382;49.140;9.234;2023-11-22T05:55:02;6.20;1.00
20446;DHT22;10382;49.140;9.234;2023-11-22T05:57:30;6.10;1.00
20446;DHT22;10382;49.140;9.234;2023-11-22T05:59:57;5.90;1.00
20446;DHT22;10382;49.140;9.234;2023-11-22T06:02:23;5.80;1.00
20446;DHT22;10382;49.140;9.234;2023-11-22T06:04:50;5.80;1.00
20446;DHT22;10382;49.140;9.234;2023-11-22T06:07:18;5.70;1.00
20446;DHT22;10382;49.140;9.234;2023-11-22T06:09:45;5.70;1.00
20446;DHT22;10382;49.140;9.234;2023-11-22T06:12:11;5.80;1.00
20446;DHT22;10382;49.140;9.234;2023-11-22T06:14:38;5.90;1.00
20446;DHT22;10382;49.140;9.234;2023-11-22T06:17:05;5.90;1.00
20446;DHT22;10382;49.140;9.234;2023-11-22T06:19:32;5.90;1.00
20446;DHT22;10382;49.140;9.234;2023-11-22T06:21:59;5.90;1.00
20446;DHT22;10382;49.140;9.234;2023-11-22T06:24:28;5.80;1.00
20446;DHT22;10382;49.140;9.234;2023-11-22T06:26:55;5.70;1.00
20446;DHT22;10382;49.140;9.234;2023-11-22T06:29:21;5.70;1.00
20446;DHT22;10382;49.140;9.234;2023-11-22T06:31:49;5.70;12.10
20446;DHT22;10382;49.140;9.234;2023-11-22T06:34:16;5.70;1.00
20446;DHT22;10382;49.140;9.234;2023-11-22T06:36:43;5.60;1.00
20446;DHT22;10382;49.140;9.234;2023-11-22T06:39:10;5.60;1.00
20446;DHT22;10382;49.140;9.234;2023-11-22T06:41:40;5.60;1.00
20446;DHT22;10382;49.140;9.234;2023-11-22T06:44:07;5.50;1.00
20446;DHT22;10382;49.140;9.234;2023-11-22T06:46:35;5.50;1.00
20446;DHT22;10382;49.140;9.234;2023-11-22T06:49:02;5.40;1.00
20446;DHT22;10382;49.140;9.234;2023-11-22T06:51:30;5.40;1.00
20446;DHT22;10382;49.140;9.234;2023-11-22T06:53:57;5.50;1.00
20446;DHT22;10382;49.140;9.234;2023-11-22T06:56:24;5.50;1.00
20446;DHT22;10382;49.140;9.234;2023-11-22T06:58:52;5.40;1.00
20446;DHT22;10382;49.140;9.234;2023-11-22T07:01:22;5.40;1.00
20446;DHT22;10382;49.140;9.234;2023-11-22T07:03:51;5.30;1.00
20446;DHT22;10382;49.140;9.234;2023-11-22T07:06:18;5.20;1.00
20446;DHT22;10382;49.140;9.234;2023-11-22T07:08:48;5.20;1.00
20446;DHT22;10382;49.140;9.234;2023-11-22T07:11:21;5.20;1.00
20446;DHT22;10382;49.140;9.234;2023-11-22T07:13:48;5.20;1.00
20446;DHT22;10382;49.140;9.234;2023-11-22T07:16:17;5.20;1.00
20446;DHT22;10382;49.140;9.234;2023-11-22T07:18:44;5.10;1.00
20446;DHT22;10382;49.140;9.234;2023-11-22T07:21:11;5.10;1.00
20446;DHT22;10382;49.140;9.234;2023-11-22T07:23:38;5.10;1.00
20446;DHT22;10382;49.140;9.234;2023-11-22T07:26:05;5.00;1.00
20446;DHT22;10382;49.140;9.234;2023-11-22T07:28:33;4.80;1.00
20446;DHT22;10382;49.140;9.234;2023-11-22T07:31:01;4.90;1.00
20446;DHT22;10382;49.140;9.234;2023-11-22T07:33:29;4.90;1.00
20446;DHT22;10382;49.140;9.234;2023-11-22T07:35:56;5.00;1.00
20446;DHT22;10382;49.140;9.234;2023-11-22T07:38:24;5.10;1.00
20446;DHT22;10382;49.140;9.234;2023-11-22T07:40:51;5.20;1.00
20446;DHT22;10382;49.140;9.234;2023-11-22T07:43:18;5.30;1.00
20446;DHT22;10382;49.140;9.234;2023-11-22T07:45:45;5.40;1.00
20446;DHT22;10382;49.140;9.234;2023-11-22T07:48:12;5.60;1.00
20446;DHT22;10382;49.140;9.234;2023-11-22T07:50:41;5.60;1.00
20446;DHT22;10382;49.140;9.234;2023-11-22T07:53:09;5.50;1.00
20446;DHT22;10382;49.140;9.234;2023-11-22T07:55:37;5.20;1.00
20446;DHT22;10382;49.140;9.234;2023-11-22T07:58:04;5.10;1.00
20446;DHT22;10382;49.140;9.234;2023-11-22T08:00:32;5.10;1.00
20446;DHT22;10382;49.140;9.234;2023-11-22T08:03:00;5.30;1.00
20446;DHT22;10382;49.140;9.234;2023-11-22T08:05:28;5.40;1.00
20446;DHT22;10382;49.140;9.234;2023-11-22T08:08:01;5.40;1.00
20446;DHT22;10382;49.140;9.234;2023-11-22T08:10:32;5.50;1.00
20446;DHT22;10382;49.140;9.234;2023-11-22T08:13:00;5.50;1.00
20446;DHT22;10382;49.140;9.234;2023-11-22T08:15:28;5.60;1.00
20446;DHT22;10382;49.140;9.234;2023-11-22T08:17:57;5.70;1.00
20446;DHT22;10382;49.140;9.234;2023-11-22T08:20:24;5.80;1.00
20446;DHT22;10382;49.140;9.234;2023-11-22T08:22:51;5.60;1.00
20446;DHT22;10382;49.140;9.234;2023-11-22T08:25:19;5.20;1.00
20446;DHT22;10382;49.140;9.234;2023-11-22T08:27:46;4.90;1.00
20446;DHT22;10382;49.140;9.234;2023-11-22T08:30:13;4.60;1.00
20446;DHT22;10382;49.140;9.234;2023-11-22T08:32:41;4.70;1.00
20446;DHT22;10382;49.140;9.234;2023-11-22T08:35:08;4.80;1.00
20446;DHT22;10382;49.140;9.234;2023-11-22T08:37:35;5.00;1.00
20446;DHT22;10382;49.140;9.234;2023-11-22T08:40:05;5.20;1.00
20446;DHT22;10382;49.140;9.234;2023-11-22T08:42:34;5.00;1.00
20446;DHT22;10382;49.140;9.234;2023-11-22T08:45:01;5.00;1.00
20446;DHT22;10382;49.140;9.234;2023-11-22T08:47:28;5.00;1.00
20446;DHT22;10382;49.140;9.234;2023-11-22T08:49:56;5.10;1.00
20446;DHT22;10382;49.140;9.234;2023-11-22T08:52:23;5.20;1.00
20446;DHT22;10382;49.140;9.234;2023-11-22T08:54:50;5.10;1.00
20446;DHT22;10382;49.140;9.234;2023-11-22T08:57:17;5.00;1.00
20446;DHT22;10382;49.140;9.234;2023-11-22T08:59:45;5.00;1.00
20446;DHT22;10382;49.140;9.234;2023-11-22T09:02:13;5.00;1.00
20446;DHT22;10382;49.140;9.234;2023-11-22T09:04:40;5.20;1.00
20446;DHT22;10382;49.140;9.234;2023-11-22T09:07:08;5.40;1.00
20446;DHT22;10382;49.140;9.234;2023-11-22T09:09:36;5.50;1.00
20446;DHT22;10382;49.140;9.234;2023-11-22T09:12:03;5.70;1.00
20446;DHT22;10382;49.140;9.234;2023-11-22T09:14:38;5.90;1.00
20446;DHT22;10382;49.140;9.234;2023-11-22T09:17:07;6.10;1.00
20446;DHT22;10382;49.140;9.234;2023-11-22T09:19:35;6.00;1.00
20446;DHT22;10382;49.140;9.234;2023-11-22T09:22:03;5.90;1.00
20446;DHT22;10382;49.140;9.234;2023-11-22T09:24:32;5.90;1.00
20446;DHT22;10382;49.140;9.234;2023-11-22T09:26:58;6.00;1.00
20446;DHT22;10382;49.140;9.234;2023-11-22T09:29:28;6.20;1.00
20446;DHT22;10382;49.140;9.234;2023-11-22T09:31:55;6.10;1.00
20446;DHT22;10382;49.140;9.234;2023-11-22T09:34:23;6.30;1.00
20446;DHT22;10382;49.140;9.234;2023-11-22T09:36:50;6.40;1.00
20446;DHT22;10382;49.140;9.234;2023-11-22T09:39:17;6.70;1.00
20446;DHT22;10382;49.140;9.234;2023-11-22T09:41:47;6.90;1.00
20446;DHT22;10382;49.140;9.234;2023-11-22T09:44:14;7.30;1.00
20446;DHT22;10382;49.140;9.234;2023-11-22T09:46:42;7.60;1.00
20446;DHT22;10382;49.140;9.234;2023-11-22T09:49:16;7.80;1.00
20446;DHT22;10382;49.140;9.234;2023-11-22T09:51:46;7.70;1.00
20446;DHT22;10382;49.140;9.234;2023-11-22T09:54:14;7.50;1.00
20446;DHT22;10382;49.140;9.234;2023-11-22T09:56:43;7.60;1.00
20446;DHT22;10382;49.140;9.234;2023-11-22T09:59:18;7.70;1.00
20446;DHT22;10382;49.140;9.234;2023-11-22T10:01:48;7.80;1.00
20446;DHT22;10382;49.140;9.234;2023-11-22T10:04:17;8.00;1.00
20446;DHT22;10382;49.140;9.234;2023-11-22T10:06:46;8.10;1.00
20446;DHT22;10382;49.140;9.234;2023-11-22T10:09:13;8.10;1.00
20446;DHT22;10382;49.140;9.234;2023-11-22T10:11:40;8.10;1.00
20446;DHT22;10382;49.140;9.234;2023-11-22T10:14:09;8.10;1.00
20446;DHT22;10382;49.140;9.234;2023-11-22T10:16:35;8.10;1.00
20446;DHT22;10382;49.140;9.234;2023-11-22T10:19:04;7.90;1.00
20446;DHT22;10382;49.140;9.234;2023-11-22T10:21:32;7.90;1.00
20446;DHT22;10382;49.140;9.234;2023-11-22T10:24:03;7.90;1.00
20446;DHT22;10382;49.140;9.234;2023-11-22T10:26:35;7.90;1.00
20446;DHT22;10382;49.140;9.234;2023-11-22T10:29:02;7.90;1.00
20446;DHT22;10382;49.140;9.234;2023-11-22T10:31:28;7.70;1.00
20446;DHT22;10382;49.140;9.234;2023-11-22T10:33:55;7.50;1.00
20446;DHT22;10382;49.140;9.234;2023-11-22T10:36:23;7.40;1.00
20446;DHT22;10382;49.140;9.234;2023-11-22T10:38:50;7.40;1.00
20446;DHT22;10382;49.140;9.234;2023-11-22T10:41:20;7.20;1.00
20446;DHT22;10382;49.140;9.234;2023-11-22T10:43:48;7.20;1.00
20446;DHT22;10382;49.140;9.234;2023-11-22T10:46:18;7.20;1.00
20446;DHT22;10382;49.140;9.234;2023-11-22T10:48:46;7.20;1.00
20446;DHT22;10382;49.140;9.234;2023-11-22T10:51:14;7.30;1.00
20446;DHT22;10382;49.140;9.234;2023-11-22T10:53:48;7.50;1.00
20446;DHT22;10382;49.140;9.234;2023-11-22T10:56:17;7.40;1.00
20446;DHT22;10382;49.140;9.234;2023-11-22T10:58:47;7.20;1.00
20446;DHT22;10382;49.140;9.234;2023-11-22T11:01:16;7.20;1.00
20446;DHT22;10382;49.140;9.234;2023-11-22T11:03:46;7.20;1.00
20446;DHT22;10382;49.140;9.234;2023-11-22T11:06:20;7.30;1.00
20446;DHT22;10382;49.140;9.234;2023-11-22T11:08:54;7.30;1.00
20446;DHT22;10382;49.140;9.234;2023-11-22T11:11:23;7.30;1.00
20446;DHT22;10382;49.140;9.234;2023-11-22T11:13:51;7.30;1.00
20446;DHT22;10382;49.140;9.234;2023-11-22T11:16:19;7.30;1.00
20446;DHT22;10382;49.140;9.234;2023-11-22T11:18:47;7.40;1.00
20446;DHT22;10382;49.140;9.234;2023-11-22T11:21:15;7.50;1.00
20446;DHT22;10382;49.140;9.234;2023-11-22T11:23:43;7.50;1.00
20446;DHT22;10382;49.140;9.234;2023-11-22T11:26:14;7.50;1.00
20446;DHT22;10382;49.140;9.234;2023-11-22T11:28:44;7.50;1.00
20446;DHT22;10382;49.140;9.234;2023-11-22T11:31:13;7.40;1.00
20446;DHT22;10382;49.140;9.234;2023-11-22T11:33:54;7.40;1.00
20446;DHT22;10382;49.140;9.234;2023-11-22T11:36:23;7.50;1.00
20446;DHT22;10382;49.140;9.234;2023-11-22T11:38:51;7.50;1.00
20446;DHT22;10382;49.140;9.234;2023-11-22T11:41:18;7.50;1.00
20446;DHT22;10382;49.140;9.234;2023-11-22T11:43:47;7.40;1.00
20446;DHT22;10382;49.140;9.234;2023-11-22T11:46:15;7.40;1.00
20446;DHT22;10382;49.140;9.234;2023-11-22T11:48:43;7.40;1.00
20446;DHT22;10382;49.140;9.234;2023-11-22T11:51:13;7.20;1.00
20446;DHT22;10382;49.140;9.234;2023-11-22T11:53:41;7.00;1.00
20446;DHT22;10382;49.140;9.234;2023-11-22T11:56:09;7.00;1.00
20446;DHT22;10382;49.140;9.234;2023-11-22T11:58:37;7.00;1.00
20446;DHT22;10382;49.140;9.234;2023-11-22T12:01:06;7.10;1.00
20446;DHT22;10382;49.140;9.234;2023-11-22T12:03:33;7.30;1.00
20446;DHT22;10382;49.140;9.234;2023-11-22T12:06:00;7.20;1.00
20446;DHT22;10382;49.140;9.234;2023-11-22T12:08:27;7.10;1.00
20446;DHT22;10382;49.140;9.234;2023-11-22T12:10:56;7.10;1.00
20446;DHT22;10382;49.140;9.234;2023-11-22T12:13:24;7.20;1.00
20446;DHT22;10382;49.140;9.234;2023-11-22T12:15:52;7.40;1.00
20446;DHT22;10382;49.140;9.234;2023-11-22T12:18:22;7.60;1.00
20446;DHT22;10382;49.140;9.234;2023-11-22T12:20:55;7.70;1.00
20446;DHT22;10382;49.140;9.234;2023-11-22T12:23:23;7.80;1.00
20446;DHT22;10382;49.140;9.234;2023-11-22T12:25:54;7.80;1.00
20446;DHT22;10382;49.140;9.234;2023-11-22T12:28:23;7.90;1.00
20446;DHT22;10382;49.140;9.234;2023-11-22T12:30:50;7.70;1.00
20446;DHT22;10382;49.140;9.234;2023-11-22T12:33:17;7.50;1.00
20446;DHT22;10382;49.140;9.234;2023-11-22T12:35:46;7.30;1.00
20446;DHT22;10382;49.140;9.234;2023-11-22T12:38:14;7.00;1.00
20446;DHT22;10382;49.140;9.234;2023-11-22T12:40:44;6.90;1.00
20446;DHT22;10382;49.140;9.234;2023-11-22T12:43:12;6.80;1.00
20446;DHT22;10382;49.140;9.234;2023-11-22T12:45:41;6.70;1.00
20446;DHT22;10382;49.140;9.234;2023-11-22T12:48:21;6.70;1.00
20446;DHT22;10382;49.140;9.234;2023-11-22T12:50:51;6.80;1.00
20446;DHT22;10382;49.140;9.234;2023-11-22T12:53:19;6.90;1.00
20446;DHT22;10382;49.140;9.234;2023-11-22T12:55:48;7.00;1.00
20446;DHT22;10382;49.140;9.234;2023-11-22T12:58:16;7.00;1.00
20446;DHT22;10382;49.140;9.234;2023-11-22T13:00:44;6.90;1.00
20446;DHT22;10382;49.140;9.234;2023-11-22T13:03:12;6.60;1.00
20446;DHT22;10382;49.140;9.234;2023-11-22T13:05:39;6.20;1.00
20446;DHT22;10382;49.140;9.234;2023-11-22T13:08:10;6.10;1.00
20446;DHT22;10382;49.140;9.234;2023-11-22T13:10:38;6.10;1.00
20446;DHT22;10382;49.140;9.234;2023-11-22T13:13:05;6.30;1.00
20446;DHT22;10382;49.140;9.234;2023-11-22T13:15:34;6.40;1.00
20446;DHT22;10382;49.140;9.234;2023-11-22T13:18:01;6.40;1.00
20446;DHT22;10382;49.140;9.234;2023-11-22T13:20:28;6.50;1.00
20446;DHT22;10382;49.140;9.234;2023-11-22T13:22:55;6.60;1.00
20446;DHT22;10382;49.140;9.234;2023-11-22T13:25:24;6.70;1.00
20446;DHT22;10382;49.140;9.234;2023-11-22T13:27:52;6.90;1.00
20446;DHT22;10382;49.140;9.234;2023-11-22T13:30:19;7.00;1.00
20446;DHT22;10382;49.140;9.234;2023-11-22T13:32:48;7.20;1.00
20446;DHT22;10382;49.140;9.234;2023-11-22T13:35:15;7.10;1.00
20446;DHT22;10382;49.140;9.234;2023-11-22T13:37:43;7.00;1.00
20446;DHT22;10382;49.140;9.234;2023-11-22T13:40:12;6.90;1.00
20446;DHT22;10382;49.140;9.234;2023-11-22T13:42:42;6.50;1.00
20446;DHT22;10382;49.140;9.234;2023-11-22T13:45:10;6.50;1.00
20446;DHT22;10382;49.140;9.234;2023-11-22T13:47:41;6.60;1.00
20446;DHT22;10382;49.140;9.234;2023-11-22T13:50:09;6.70;1.00
20446;DHT22;10382;49.140;9.234;2023-11-22T13:52:36;6.90;1.00
20446;DHT22;10382;49.140;9.234;2023-11-22T13:55:04;6.80;1.00
20446;DHT22;10382;49.140;9.234;2023-11-22T13:57:35;6.60;1.00
20446;DHT22;10382;49.140;9.234;2023-11-22T14:00:04;6.60;1.00
20446;DHT22;10382;49.140;9.234;2023-11-22T14:02:34;6.70;1.00
20446;DHT22;10382;49.140;9.234;2023-11-22T14:05:02;6.50;1.00
20446;DHT22;10382;49.140;9.234;2023-11-22T14:07:33;6.30;1.00
20446;DHT22;10382;49.140;9.234;2023-11-22T14:10:00;6.20;1.00
20446;DHT22;10382;49.140;9.234;2023-11-22T14:12:28;6.40;1.00
20446;DHT22;10382;49.140;9.234;2023-11-22T14:14:55;6.50;1.00
20446;DHT22;10382;49.140;9.234;2023-11-22T14:17:24;6.40;1.00
20446;DHT22;10382;49.140;9.234;2023-11-22T14:19:51;6.40;1.00
20446;DHT22;10382;49.140;9.234;2023-11-22T14:22:18;6.50;1.00
20446;DHT22;10382;49.140;9.234;2023-11-22T14:24:46;6.60;1.00
20446;DHT22;10382;49.140;9.234;2023-11-22T14:27:13;6.70;1.00
20446;DHT22;10382;49.140;9.234;2023-11-22T14:29:40;6.60;1.00
20446;DHT22;10382;49.140;9.234;2023-11-22T14:32:08;6.40;1.00
20446;DHT22;10382;49.140;9.234;2023-11-22T14:34:36;5.90;1.00
20446;DHT22;10382;49.140;9.234;2023-11-22T14:37:04;5.50;1.00
20446;DHT22;10382;49.140;9.234;2023-11-22T14:39:32;5.20;1.00
20446;DHT22;10382;49.140;9.234;2023-11-22T14:41:59;5.00;1.00
20446;DHT22;10382;49.140;9.234;2023-11-22T14:44:26;4.70;1.00
20446;DHT22;10382;49.140;9.234;2023-11-22T14:46:53;4.70;1.00
20446;DHT22;10382;49.140;9.234;2023-11-22T14:49:20;4.70;1.00
20446;DHT22;10382;49.140;9.234;2023-11-22T14:51:48;4.80;1.00
20446;DHT22;10382;49.140;9.234;2023-11-22T14:54:15;4.70;43.70
20446;DHT22;10382;49.140;9.234;2023-11-22T14:56:42;4.70;1.00
20446;DHT22;10382;49.140;9.234;2023-11-22T14:59:10;4.70;44.60
20446;DHT22;10382;49.140;9.234;2023-11-22T15:01:38;4.70;99.90
20446;DHT22;10382;49.140;9.234;2023-11-22T15:04:07;4.50;99.90
20446;DHT22;10382;49.140;9.234;2023-11-22T15:06:35;4.50;99.90
20446;DHT22;10382;49.140;9.234;2023-11-22T15:09:03;4.60;99.90
20446;DHT22;10382;49.140;9.234;2023-11-22T15:11:35;4.70;99.90
20446;DHT22;10382;49.140;9.234;2023-11-22T15:14:02;4.60;99.90
20446;DHT22;10382;49.140;9.234;2023-11-22T15:16:29;4.60;99.90
20446;DHT22;10382;49.140;9.234;2023-11-22T15:18:57;4.60;99.90
20446;DHT22;10382;49.140;9.234;2023-11-22T15:21:25;4.70;99.90
20446;DHT22;10382;49.140;9.234;2023-11-22T15:23:52;4.70;99.90
20446;DHT22;10382;49.140;9.234;2023-11-22T15:26:23;4.90;99.90
20446;DHT22;10382;49.140;9.234;2023-11-22T15:28:49;5.00;99.90
20446;DHT22;10382;49.140;9.234;2023-11-22T15:31:16;4.90;99.90
20446;DHT22;10382;49.140;9.234;2023-11-22T15:33:44;4.80;99.90
20446;DHT22;10382;49.140;9.234;2023-11-22T15:36:12;4.80;99.90
20446;DHT22;10382;49.140;9.234;2023-11-22T15:38:39;4.80;99.90
20446;DHT22;10382;49.140;9.234;2023-11-22T15:41:06;4.80;99.90
20446;DHT22;10382;49.140;9.234;2023-11-22T15:43:35;4.80;99.90
20446;DHT22;10382;49.140;9.234;2023-11-22T15:46:01;4.80;99.90
20446;DHT22;10382;49.140;9.234;2023-11-22T15:48:29;4.80;99.90
20446;DHT22;10382;49.140;9.234;2023-11-22T15:50:58;4.90;99.90
20446;DHT22;10382;49.140;9.234;2023-11-22T15:53:25;5.10;99.90
20446;DHT22;10382;49.140;9.234;2023-11-22T15:55:52;5.20;99.90
20446;DHT22;10382;49.140;9.234;2023-11-22T15:58:19;5.40;90.80